createdAt,value
2022-09-30T00:02:40.713Z,70.87
2022-09-30T00:06:01.306Z,70.68
2022-09-30T00:09:17.067Z,70.51
2022-09-30T00:12:34.951Z,70.31
2022-09-30T00:15:50.369Z,70.20
2022-09-30T00:19:04.116Z,70.23
2022-09-30T00:22:15.246Z,70.31
2022-09-30T00:25:22.052Z,70.63
2022-09-30T00:28:29.233Z,70.72
2022-09-30T00:31:36.857Z,70.50
2022-09-30T00:34:43.489Z,70.41
2022-09-30T00:37:50.253Z,70.33
2022-09-30T00:40:57.998Z,70.33
2022-09-30T00:44:18.329Z,70.25
2022-09-30T00:47:40.252Z,70.15
2022-09-30T00:50:49.831Z,70.19
2022-09-30T00:54:01.554Z,70.31
2022-09-30T00:57:10.639Z,70.47
2022-09-30T01:00:17.225Z,70.36
2022-09-30T01:03:25.693Z,70.21
2022-09-30T01:06:32.595Z,70.04
2022-09-30T01:09:42.226Z,70.05
2022-09-30T01:12:48.783Z,69.91
2022-09-30T01:16:08.198Z,69.64
2022-09-30T01:19:36.248Z,69.61
2022-09-30T01:22:50.758Z,69.63
2022-09-30T01:26:40.047Z,69.55
2022-09-30T01:30:10.869Z,69.42
2022-09-30T01:33:34.605Z,69.26
2022-09-30T01:36:56.110Z,69.19
2022-09-30T01:40:09.488Z,69.09
2022-09-30T01:43:26.669Z,69.09
2022-09-30T01:46:37.872Z,69.30
2022-09-30T01:49:49.135Z,69.52
2022-09-30T01:53:05.612Z,69.50
2022-09-30T01:56:19.241Z,69.45
2022-09-30T01:59:32.053Z,69.56
2022-09-30T02:02:43.748Z,69.56
2022-09-30T02:05:57.960Z,69.47
2022-09-30T02:09:08.523Z,69.51
2022-09-30T02:12:21.085Z,69.53
2022-09-30T02:15:38.468Z,69.71
2022-09-30T02:18:50.496Z,69.65
2022-09-30T02:22:01.857Z,69.75
2022-09-30T02:25:11.848Z,69.91
2022-09-30T02:28:27.299Z,70.21
2022-09-30T02:31:37.453Z,70.07
2022-09-30T02:34:46.979Z,69.92
2022-09-30T02:37:57.869Z,69.85
2022-09-30T02:41:10.749Z,69.78
2022-09-30T02:44:19.061Z,69.74
2022-09-30T02:47:32.761Z,69.62
2022-09-30T02:50:46.761Z,69.73
2022-09-30T02:54:02.364Z,69.76
2022-09-30T02:57:19.652Z,69.93
2022-09-30T03:00:26.474Z,70.25
2022-09-30T03:03:39.378Z,70.34
2022-09-30T03:06:46.367Z,70.51
2022-09-30T03:09:57.103Z,70.64
2022-09-30T03:13:22.995Z,70.64
2022-09-30T03:16:46.778Z,70.57
2022-09-30T03:20:06.863Z,70.43
2022-09-30T03:23:35.448Z,70.64
2022-09-30T03:26:50.351Z,70.62
2022-09-30T03:30:03.449Z,70.67
2022-09-30T03:33:17.512Z,70.68
2022-09-30T03:36:32.372Z,70.54
2022-09-30T03:39:50.424Z,70.44
2022-09-30T03:43:07.298Z,70.46
2022-09-30T03:46:23.030Z,70.49
2022-09-30T03:49:33.967Z,70.40
2022-09-30T03:52:41.005Z,70.40
2022-09-30T03:55:53.221Z,70.33
2022-09-30T03:58:59.870Z,70.43
2022-09-30T04:02:07.234Z,70.52
2022-09-30T04:05:14.149Z,70.49
2022-09-30T04:08:20.887Z,70.44
2022-09-30T04:11:27.752Z,70.31
2022-09-30T04:14:34.605Z,70.38
2022-09-30T04:17:41.077Z,70.52
2022-09-30T04:20:47.503Z,70.77
2022-09-30T04:23:54.165Z,70.80
2022-09-30T04:27:00.748Z,70.85
2022-09-30T04:30:08.356Z,70.92
2022-09-30T04:33:14.844Z,70.92
2022-09-30T04:36:21.533Z,71.00
2022-09-30T04:39:27.770Z,70.92
2022-09-30T04:42:33.098Z,70.85
2022-09-30T04:45:39.423Z,71.10
2022-09-30T04:48:46.644Z,71.04
2022-09-30T04:51:52.856Z,71.08
2022-09-30T04:54:58.907Z,70.92
2022-09-30T04:58:05.191Z,70.97
2022-09-30T05:01:13.660Z,70.79
2022-09-30T05:04:20.106Z,70.80
2022-09-30T05:07:26.931Z,70.85
2022-09-30T05:10:33.740Z,71.11
2022-09-30T05:13:41.671Z,71.29
2022-09-30T05:16:47.899Z,71.32
2022-09-30T05:19:52.545Z,71.52
2022-09-30T05:22:59.454Z,71.89
2022-09-30T05:26:11.120Z,71.75
2022-09-30T05:29:19.594Z,71.70
2022-09-30T05:32:26.030Z,71.92
2022-09-30T05:35:32.327Z,71.91
2022-09-30T05:38:38.999Z,71.91
2022-09-30T05:41:45.255Z,71.74
2022-09-30T05:44:49.860Z,71.79
2022-09-30T05:47:56.858Z,72.08
2022-09-30T05:51:03.623Z,71.95
2022-09-30T05:54:10.904Z,71.98
2022-09-30T05:57:17.403Z,72.01
2022-09-30T06:00:23.778Z,71.91
2022-09-30T06:03:30.042Z,71.93
2022-09-30T06:06:35.944Z,72.03
2022-09-30T06:09:42.791Z,72.25
2022-09-30T06:12:49.093Z,72.27
2022-09-30T06:16:03.388Z,72.19
2022-09-30T06:19:09.862Z,72.24
2022-09-30T06:22:16.324Z,72.16
2022-09-30T06:25:22.543Z,72.05
2022-09-30T06:28:27.487Z,72.25
2022-09-30T06:31:33.922Z,72.50
2022-09-30T06:34:40.197Z,72.40
2022-09-30T06:37:46.072Z,72.25
2022-09-30T06:40:52.510Z,72.50
2022-09-30T06:43:58.586Z,72.37
2022-09-30T06:47:05.531Z,72.16
2022-09-30T06:50:23.470Z,72.06
2022-09-30T06:53:31.235Z,71.92
2022-09-30T06:56:37.454Z,71.82
2022-09-30T06:59:41.863Z,71.87
2022-09-30T07:02:48.921Z,72.33
2022-09-30T07:06:00.269Z,72.37
2022-09-30T07:09:06.693Z,72.35
2022-09-30T07:12:12.919Z,72.03
2022-09-30T07:15:17.649Z,71.76
2022-09-30T07:18:24.167Z,71.96
2022-09-30T07:21:31.620Z,71.90
2022-09-30T07:24:37.742Z,72.10
2022-09-30T07:27:42.313Z,72.06
2022-09-30T07:30:48.426Z,71.96
2022-09-30T07:33:53.353Z,72.08
2022-09-30T07:36:59.438Z,72.16
2022-09-30T07:40:08.638Z,71.66
2022-09-30T07:43:19.248Z,71.78
2022-09-30T07:46:27.213Z,71.47
2022-09-30T07:49:33.826Z,71.46
2022-09-30T07:52:39.917Z,71.55
2022-09-30T07:55:46.043Z,71.66
2022-09-30T07:58:54.550Z,71.51
2022-09-30T08:02:00.725Z,71.56
2022-09-30T08:05:07.761Z,71.32
2022-09-30T08:08:14.339Z,71.74
2022-09-30T08:11:20.744Z,71.76
2022-09-30T08:14:29.078Z,71.95
2022-09-30T08:17:35.202Z,72.25
2022-09-30T08:20:39.654Z,72.09
2022-09-30T08:23:45.780Z,72.03
2022-09-30T08:26:50.340Z,72.04
2022-09-30T08:29:58.378Z,72.35
2022-09-30T08:33:06.460Z,72.45
2022-09-30T08:36:15.508Z,72.73
2022-09-30T08:39:21.649Z,72.70
2022-09-30T08:42:41.600Z,72.97
2022-09-30T08:45:59.652Z,73.19
2022-09-30T08:49:17.267Z,72.96
2022-09-30T08:52:37.347Z,72.83
2022-09-30T08:55:50.828Z,72.31
2022-09-30T08:58:59.034Z,72.57
2022-09-30T09:02:17.485Z,72.41
2022-09-30T09:05:37.559Z,72.17
2022-09-30T09:08:57.680Z,71.92
2022-09-30T09:12:14.365Z,72.17
2022-09-30T09:15:42.199Z,72.07
2022-09-30T09:18:59.694Z,72.12
2022-09-30T09:22:05.886Z,71.88
2022-09-30T09:25:14.442Z,72.12
2022-09-30T09:28:29.383Z,72.19
2022-09-30T09:31:35.615Z,72.42
2022-09-30T09:34:41.368Z,72.97
2022-09-30T09:38:10.531Z,72.64
2022-09-30T09:41:33.529Z,72.16
2022-09-30T09:44:48.430Z,71.95
2022-09-30T09:48:00.211Z,71.64
2022-09-30T09:51:14.582Z,71.44
2022-09-30T09:54:28.262Z,71.35
2022-09-30T09:57:34.426Z,71.49
2022-09-30T10:00:56.260Z,71.75
2022-09-30T10:04:17.865Z,71.90
2022-09-30T10:07:23.983Z,71.68
2022-09-30T10:10:30.131Z,71.25
2022-09-30T10:13:45.455Z,71.30
2022-09-30T10:16:51.763Z,71.23
2022-09-30T10:20:04.442Z,70.96
2022-09-30T10:23:20.641Z,71.23
2022-09-30T10:26:28.808Z,70.86
2022-09-30T10:29:36.716Z,70.97
2022-09-30T10:32:42.814Z,71.02
2022-09-30T10:35:55.991Z,70.73
2022-09-30T10:39:07.405Z,70.89
2022-09-30T10:42:25.988Z,70.96
2022-09-30T10:45:37.407Z,71.41
2022-09-30T10:48:50.210Z,71.67
2022-09-30T10:51:57.194Z,71.24
2022-09-30T10:55:13.284Z,71.13
2022-09-30T10:58:31.018Z,71.15
2022-09-30T11:01:42.051Z,71.22
2022-09-30T11:04:54.314Z,71.64
2022-09-30T11:11:56.554Z,71.56
2022-09-30T11:15:09.484Z,71.80
2022-09-30T11:18:23.037Z,71.85
2022-09-30T11:21:35.437Z,72.06
2022-09-30T11:24:45.367Z,72.30
2022-09-30T11:28:10.153Z,72.01
2022-09-30T11:31:26.333Z,71.92
2022-09-30T11:34:44.777Z,72.14
2022-09-30T11:38:10.427Z,72.26
2022-09-30T11:41:19.637Z,71.64
2022-09-30T11:44:34.045Z,70.89
2022-09-30T11:47:56.512Z,70.95
2022-09-30T11:51:11.680Z,70.45
2022-09-30T11:54:32.907Z,69.60
2022-09-30T11:57:45.157Z,69.59
2022-09-30T12:00:58.423Z,70.12
2022-09-30T12:04:11.023Z,70.74
2022-09-30T12:07:20.177Z,70.80
2022-09-30T12:10:29.257Z,70.84
2022-09-30T12:13:39.368Z,71.05
2022-09-30T12:16:47.308Z,70.93
2022-09-30T12:19:57.658Z,70.57
2022-09-30T12:23:14.587Z,70.56
2022-09-30T12:26:21.115Z,70.63
2022-09-30T12:29:48.970Z,70.57
2022-09-30T12:33:19.939Z,70.56
2022-09-30T12:36:52.598Z,70.61
2022-09-30T12:40:20.184Z,70.58
2022-09-30T12:43:59.491Z,70.44
2022-09-30T12:47:20.994Z,70.40
2022-09-30T12:50:31.270Z,69.79
2022-09-30T12:53:39.114Z,69.67
2022-09-30T12:56:47.327Z,69.88
2022-09-30T12:59:56.550Z,70.07
2022-09-30T13:03:08.339Z,69.65
2022-09-30T13:06:15.486Z,69.70
2022-09-30T13:09:31.278Z,69.86
2022-09-30T13:12:47.859Z,70.03
2022-09-30T13:15:56.343Z,70.36
2022-09-30T13:19:05.530Z,69.85
2022-09-30T13:22:54.367Z,69.64
2022-09-30T13:26:02.108Z,69.58
2022-09-30T13:29:38.551Z,69.74
2022-09-30T13:32:48.009Z,69.81
2022-09-30T13:35:58.647Z,69.82
2022-09-30T13:39:21.053Z,69.97
2022-09-30T13:42:31.575Z,70.11
2022-09-30T13:45:39.966Z,70.14
2022-09-30T13:48:56.229Z,70.16
2022-09-30T13:52:03.888Z,70.03
2022-09-30T13:55:18.976Z,70.76
2022-09-30T13:58:46.238Z,70.62
2022-09-30T14:02:08.666Z,69.75
2022-09-30T14:05:36.227Z,69.46
2022-09-30T14:09:07.819Z,69.47
2022-09-30T14:12:44.318Z,69.90
2022-09-30T14:16:34.914Z,69.49
2022-09-30T14:20:09.402Z,69.41
2022-09-30T14:23:20.345Z,69.49
2022-09-30T14:26:45.053Z,69.09
2022-09-30T14:30:00.317Z,69.40
2022-09-30T14:33:13.412Z,69.42
2022-09-30T14:36:21.962Z,68.90
2022-09-30T14:39:31.842Z,68.75
2022-09-30T14:42:42.585Z,68.69
2022-09-30T14:45:53.139Z,68.50
2022-09-30T14:49:04.690Z,68.59
2022-09-30T14:52:38.103Z,68.70
2022-09-30T14:55:44.282Z,68.72
2022-09-30T14:58:52.480Z,68.72
2022-09-30T15:02:02.978Z,68.35
2022-09-30T15:05:14.192Z,68.35
2022-09-30T15:08:22.865Z,68.55
2022-09-30T15:24:55.218Z,70.11
2022-09-30T15:28:01.317Z,70.38
2022-09-30T15:31:08.312Z,70.43
2022-09-30T15:34:23.251Z,70.33
2022-09-30T15:37:33.917Z,69.97
2022-09-30T15:40:49.238Z,69.59
2022-09-30T15:43:55.886Z,69.70
2022-09-30T15:47:07.254Z,69.57
2022-09-30T15:50:41.442Z,69.61
2022-09-30T15:53:51.558Z,69.79
2022-09-30T15:56:57.767Z,69.78
2022-09-30T16:00:07.970Z,69.82
2022-09-30T16:03:31.228Z,69.75
2022-09-30T16:06:45.165Z,69.09
2022-09-30T16:09:51.166Z,69.00
2022-09-30T16:12:57.095Z,69.37
2022-09-30T16:16:03.364Z,69.64
2022-09-30T16:19:17.179Z,69.73
2022-09-30T16:22:52.161Z,69.60
2022-09-30T16:26:19.503Z,69.53
2022-09-30T16:29:26.276Z,69.59
2022-09-30T16:32:36.718Z,69.89
2022-09-30T16:35:44.754Z,69.80
2022-09-30T16:38:50.667Z,69.82
2022-09-30T16:41:56.495Z,69.79
2022-09-30T16:45:02.356Z,69.76
2022-09-30T16:48:15.568Z,69.91
2022-09-30T16:51:21.431Z,69.90
2022-09-30T16:54:27.507Z,69.81
2022-09-30T16:57:33.365Z,69.70
2022-09-30T17:00:39.755Z,69.72
2022-09-30T17:03:46.571Z,69.67
2022-09-30T17:06:52.441Z,69.48
2022-09-30T17:09:58.270Z,69.50
2022-09-30T17:13:05.547Z,69.36
2022-09-30T17:16:11.617Z,69.50
2022-09-30T17:19:16.113Z,69.57
2022-09-30T17:22:21.975Z,69.76
2022-09-30T17:25:28.191Z,69.49
2022-09-30T17:28:34.901Z,69.32
2022-09-30T17:31:40.796Z,69.58
2022-09-30T17:34:46.702Z,69.41
2022-09-30T17:37:52.569Z,69.45
2022-09-30T17:41:16.292Z,69.66
2022-09-30T17:44:22.166Z,69.77
2022-09-30T17:47:28.338Z,69.76
2022-09-30T17:50:32.589Z,69.83
2022-09-30T17:53:38.497Z,70.01
2022-09-30T17:56:44.742Z,69.86
2022-09-30T17:59:51.538Z,69.82
2022-09-30T18:02:57.590Z,69.87
2022-09-30T18:06:03.952Z,69.83
2022-09-30T18:09:11.349Z,69.82
2022-09-30T18:12:19.275Z,69.95
2022-09-30T18:15:27.176Z,70.08
2022-09-30T18:18:34.775Z,70.06
2022-09-30T18:21:40.806Z,70.16
2022-09-30T18:25:09.262Z,70.09
2022-09-30T18:28:15.419Z,70.14
2022-09-30T18:31:28.489Z,70.11
2022-09-30T18:34:34.768Z,70.20
2022-09-30T18:37:39.606Z,70.06
2022-09-30T18:40:45.929Z,70.27
2022-09-30T18:43:59.668Z,70.16
2022-09-30T18:47:05.585Z,70.19
2022-09-30T18:50:13.688Z,70.24
2022-09-30T18:53:20.729Z,70.35
2022-09-30T18:56:32.179Z,70.31
2022-09-30T18:59:38.407Z,70.33
2022-09-30T19:02:45.182Z,70.30
2022-09-30T19:05:51.035Z,70.25
2022-09-30T19:08:56.971Z,70.19
2022-09-30T19:12:03.221Z,70.16
2022-09-30T19:15:11.889Z,70.15
2022-09-30T19:18:18.124Z,70.18
2022-09-30T19:21:24.395Z,70.23
2022-09-30T19:24:30.306Z,70.27
2022-09-30T19:27:37.823Z,70.29
2022-09-30T19:30:43.683Z,70.26
2022-09-30T19:33:56.454Z,70.31
2022-09-30T19:37:02.858Z,70.42
2022-09-30T19:40:20.502Z,70.38
2022-09-30T19:43:29.317Z,70.34
2022-09-30T19:46:35.772Z,70.26
2022-09-30T19:49:41.735Z,70.41
2022-09-30T19:52:55.826Z,70.51
2022-09-30T19:56:05.918Z,70.54
2022-09-30T19:59:11.919Z,70.49
2022-09-30T20:02:20.081Z,70.53
2022-09-30T20:05:26.471Z,70.48
2022-09-30T20:08:33.755Z,70.49
2022-09-30T20:11:40.893Z,70.43
2022-09-30T20:15:04.374Z,70.46
2022-09-30T20:18:10.226Z,70.44
2022-09-30T20:21:17.834Z,70.35
2022-09-30T20:24:25.129Z,70.37
2022-09-30T20:27:33.074Z,70.45
2022-09-30T20:30:45.709Z,70.57
2022-09-30T20:33:55.010Z,70.55
2022-09-30T20:37:00.848Z,70.49
2022-09-30T20:40:09.291Z,70.51
2022-09-30T20:43:15.205Z,70.47
2022-09-30T20:46:21.432Z,70.49
2022-09-30T20:49:25.654Z,70.65
2022-09-30T20:52:31.495Z,70.79
2022-09-30T20:55:40.045Z,70.67
2022-09-30T20:58:46.770Z,70.66
2022-09-30T21:01:52.659Z,70.68
2022-09-30T21:04:59.765Z,70.67
2022-09-30T21:08:07.438Z,70.65
2022-09-30T21:11:13.650Z,70.57
2022-09-30T21:14:19.519Z,70.60
2022-09-30T21:17:25.419Z,70.74
2022-09-30T21:20:31.338Z,70.65
2022-09-30T21:23:38.087Z,70.52
2022-09-30T21:26:43.991Z,70.44
2022-09-30T21:29:50.991Z,70.33
2022-09-30T21:32:56.938Z,70.29
2022-09-30T21:36:04.755Z,70.23
2022-09-30T21:39:12.654Z,70.18
2022-09-30T21:42:19.183Z,70.21
2022-09-30T21:45:25.609Z,70.19
2022-09-30T21:48:33.340Z,70.15
2022-09-30T21:51:39.174Z,70.08
2022-09-30T21:54:45.049Z,70.04
2022-09-30T21:57:50.887Z,70.10
2022-09-30T22:01:00.708Z,70.08
2022-09-30T22:04:07.419Z,70.13
2022-09-30T22:07:15.567Z,70.17
2022-09-30T22:10:21.494Z,70.32
2022-09-30T22:13:27.349Z,70.35
2022-09-30T22:16:35.983Z,70.38
2022-09-30T22:19:41.903Z,70.41
2022-09-30T22:22:49.049Z,70.29
2022-09-30T22:25:56.913Z,70.25
2022-09-30T22:29:04.425Z,70.29
2022-09-30T22:32:10.384Z,70.27
2022-09-30T22:35:33.983Z,70.21
2022-09-30T22:38:39.827Z,70.21
2022-09-30T22:41:45.705Z,70.16
2022-09-30T22:44:52.122Z,70.25
2022-09-30T22:47:58.686Z,70.34
2022-09-30T22:51:05.194Z,70.50
2022-09-30T22:54:12.373Z,70.51
2022-09-30T22:57:18.242Z,70.55
2022-09-30T23:00:24.115Z,70.61
2022-09-30T23:03:30.076Z,70.68
2022-09-30T23:06:36.603Z,70.57
2022-09-30T23:09:42.448Z,70.49
2022-09-30T23:12:51.495Z,70.49
2022-09-30T23:16:02.545Z,70.43
2022-09-30T23:19:08.638Z,70.35
2022-09-30T23:22:13.572Z,70.42
2022-09-30T23:25:19.420Z,70.60
2022-09-30T23:28:25.359Z,70.50
2022-09-30T23:31:32.182Z,70.46
2022-09-30T23:34:38.346Z,70.36
2022-09-30T23:37:44.393Z,70.37
2022-09-30T23:40:51.199Z,70.41
2022-09-30T23:43:57.092Z,70.55
2022-09-30T23:47:21.645Z,70.83
2022-09-30T23:50:27.631Z,70.81
2022-09-30T23:53:34.535Z,70.78
2022-09-30T23:56:41.529Z,70.65
2022-09-30T23:59:47.400Z,70.61
